Wetterdaten: Woche 01.04.13 - 07.04.13 (KW14)
Datum Zeit Temperatur Luftfeuchte Luftdruck Niederschlag Windrichtung Sonnenschein Solar Wind
01.04.2013 00:00 -0,9 C 90 % 1008,0 hPa 0,0 l/m O-NO 0,00 h 0 W/m 5,7 km/h (1 Bft)
01.04.2013 01:00 -1,2 C 89 % 1007,7 hPa 0,0 l/m N 0,00 h 0 W/m 5,1 km/h (1 Bft)
01.04.2013 02:00 -1,5 C 87 % 1007,3 hPa 0,0 l/m O-NO 0,00 h 0 W/m 4,4 km/h (1 Bft)
01.04.2013 03:00 -2,1 C 88 % 1007,2 hPa 0,0 l/m N 0,00 h 0 W/m 3,9 km/h (1 Bft)
01.04.2013 04:00 -2,2 C 91 % 1007,1 hPa 0,0 l/m O-NO 0,00 h 0 W/m 6,1 km/h (2 Bft)
01.04.2013 05:00 -2,2 C 91 % 1006,6 hPa 0,0 l/m O-NO 0,00 h 0 W/m 10,1 km/h (2 Bft)
01.04.2013 06:00 -2,8 C 90 % 1006,3 hPa 0,0 l/m NO 0,00 h 0 W/m 9,1 km/h (2 Bft)
01.04.2013 07:00 -3,1 C 92 % 1006,5 hPa 0,0 l/m N 0,08 h 27 W/m 4,3 km/h (1 Bft)
01.04.2013 08:00 -2,7 C 91 % 1006,5 hPa 0,0 l/m O-NO 0,08 h 115 W/m 8,4 km/h (2 Bft)
01.04.2013 09:00 -1,5 C 89 % 1006,5 hPa 0,0 l/m O-NO 0,92 h 324 W/m 13,0 km/h (3 Bft)
01.04.2013 10:00 0,2 C 82 % 1006,4 hPa 0,0 l/m O-SO 1,00 h 454 W/m 16,5 km/h (3 Bft)
01.04.2013 11:00 1,6 C 74 % 1006,3 hPa 0,0 l/m O-SO 0,92 h 626 W/m 20,4 km/h (4 Bft)
01.04.2013 12:00 2,2 C 71 % 1006,0 hPa 0,0 l/m O 0,33 h 347 W/m 21,7 km/h (4 Bft)
01.04.2013 13:00 3,1 C 68 % 1005,6 hPa 0,0 l/m O-SO 0,50 h 478 W/m 22,0 km/h (4 Bft)
01.04.2013 14:00 3,3 C 67 % 1005,7 hPa 0,0 l/m O-NO 0,42 h 470 W/m 21,2 km/h (4 Bft)
01.04.2013 15:00 4,0 C 64 % 1005,4 hPa 0,0 l/m O 0,25 h 389 W/m 21,4 km/h (4 Bft)
01.04.2013 16:00 4,0 C 65 % 1005,3 hPa 0,0 l/m O-SO 0,50 h 386 W/m 20,6 km/h (4 Bft)
01.04.2013 17:00 4,0 C 64 % 1005,1 hPa 0,0 l/m O 0,58 h 272 W/m 21,4 km/h (4 Bft)
01.04.2013 18:00 3,4 C 65 % 1004,8 hPa 0,0 l/m O-NO 0,67 h 151 W/m 20,5 km/h (4 Bft)
01.04.2013 19:00 2,6 C 67 % 1005,0 hPa 0,0 l/m O 0,08 h 24 W/m 15,0 km/h (3 Bft)
01.04.2013 20:00 1,5 C 71 % 1005,2 hPa 0,0 l/m O-NO 0,00 h 0 W/m 12,8 km/h (3 Bft)
01.04.2013 21:00 0,7 C 74 % 1005,4 hPa 0,0 l/m O-NO 0,00 h 0 W/m 12,2 km/h (2 Bft)
01.04.2013 22:00 0,0 C 76 % 1005,0 hPa 0,0 l/m O-NO 0,00 h 0 W/m 13,2 km/h (3 Bft)
01.04.2013 23:00 -0,5 C 78 % 1004,6 hPa 0,0 l/m NO 0,00 h 0 W/m 13,0 km/h (3 Bft)
02.04.2013 00:00 -0,9 C 79 % 1004,5 hPa 0,0 l/m NO 0,00 h 0 W/m 12,0 km/h (2 Bft)
02.04.2013 01:00 -1,2 C 81 % 1004,4 hPa 0,0 l/m O-NO 0,00 h 0 W/m 12,0 km/h (2 Bft)
02.04.2013 02:00 -1,1 C 81 % 1004,4 hPa 0,0 l/m NO 0,00 h 0 W/m 14,0 km/h (3 Bft)
02.04.2013 03:00 -1,1 C 81 % 1004,1 hPa 0,0 l/m O-NO 0,00 h 0 W/m 12,6 km/h (3 Bft)
02.04.2013 04:00 -1,2 C 81 % 1003,9 hPa 0,0 l/m N 0,00 h 0 W/m 6,4 km/h (2 Bft)
02.04.2013 05:00 -1,4 C 82 % 1003,7 hPa 0,0 l/m N 0,00 h 0 W/m 6,4 km/h (2 Bft)
02.04.2013 06:00 -1,5 C 85 % 1003,6 hPa 0,0 l/m N 0,00 h 0 W/m 6,4 km/h (2 Bft)
02.04.2013 07:00 -1,3 C 88 % 1003,7 hPa 0,0 l/m N 0,00 h 9 W/m 6,4 km/h (2 Bft)
02.04.2013 08:00 -1,2 C 89 % 1004,2 hPa 0,0 l/m N 0,00 h 20 W/m 6,4 km/h (2 Bft)
02.04.2013 09:00 -0,7 C 89 % 1004,3 hPa 0,0 l/m N 0,00 h 39 W/m 6,4 km/h (2 Bft)
02.04.2013 10:00 -0,3 C 88 % 1004,7 hPa 0,0 l/m N 0,00 h 60 W/m 6,4 km/h (2 Bft)
02.04.2013 11:00 0,1 C 87 % 1005,0 hPa 0,0 l/m N 0,00 h 85 W/m 6,4 km/h (2 Bft)
02.04.2013 12:00 0,6 C 85 % 1005,3 hPa 0,0 l/m N 0,00 h 101 W/m 6,4 km/h (2 Bft)
02.04.2013 13:00 0,8 C 84 % 1005,5 hPa 0,0 l/m N 0,00 h 100 W/m 6,4 km/h (2 Bft)
02.04.2013 14:00 1,0 C 84 % 1005,7 hPa 0,0 l/m N 0,00 h 84 W/m 6,4 km/h (2 Bft)
02.04.2013 15:00 1,1 C 83 % 1005,9 hPa 0,0 l/m N 0,00 h 70 W/m 6,4 km/h (2 Bft)
02.04.2013 16:00 0,9 C 84 % 1006,3 hPa 0,0 l/m N 0,00 h 47 W/m 6,4 km/h (2 Bft)
02.04.2013 17:00 0,9 C 84 % 1006,7 hPa 0,0 l/m N 0,00 h 30 W/m 6,4 km/h (2 Bft)
02.04.2013 18:00 0,7 C 84 % 1007,2 hPa 0,0 l/m N 0,00 h 14 W/m 6,4 km/h (2 Bft)
02.04.2013 19:00 0,5 C 86 % 1007,8 hPa 0,0 l/m N 0,00 h 6 W/m 6,4 km/h (2 Bft)
02.04.2013 20:00 0,4 C 87 % 1008,2 hPa 0,0 l/m N 0,00 h 0 W/m 6,4 km/h (2 Bft)
02.04.2013 21:00 0,3 C 87 % 1008,4 hPa 0,0 l/m N 0,00 h 0 W/m 6,4 km/h (2 Bft)
02.04.2013 22:00 -0,1 C 87 % 1008,5 hPa 0,0 l/m N 0,00 h 0 W/m 6,4 km/h (2 Bft)
02.04.2013 23:00 -0,6 C 88 % 1008,7 hPa 0,0 l/m N 0,00 h 0 W/m 6,4 km/h (2 Bft)
03.04.2013 00:00 -0,4 C 91 % 1008,7 hPa 0,0 l/m N 0,00 h 0 W/m 0,5 km/h (0 Bft)
03.04.2013 01:00 -0,2 C 91 % 1008,7 hPa 0,0 l/m N 0,00 h 0 W/m 0,0 km/h (0 Bft)
03.04.2013 02:00 0,1 C 91 % 1008,8 hPa 0,0 l/m N 0,00 h 0 W/m 0,0 km/h (0 Bft)
03.04.2013 03:00 0,2 C 91 % 1008,9 hPa 0,0 l/m N 0,00 h 0 W/m 0,0 km/h (0 Bft)
03.04.2013 04:00 0,3 C 91 % 1009,1 hPa 0,0 l/m N 0,00 h 0 W/m 0,0 km/h (0 Bft)
03.04.2013 05:00 0,4 C 91 % 1009,3 hPa 0,0 l/m N 0,00 h 0 W/m 0,0 km/h (0 Bft)
03.04.2013 06:00 0,6 C 91 % 1009,5 hPa 0,0 l/m N 0,00 h 0 W/m 0,0 km/h (0 Bft)
03.04.2013 07:00 0,7 C 89 % 1009,7 hPa 0,0 l/m N 0,00 h 14 W/m 0,0 km/h (0 Bft)
03.04.2013 08:00 0,8 C 89 % 1009,8 hPa 0,0 l/m N 0,00 h 19 W/m 0,0 km/h (0 Bft)
03.04.2013 09:00 0,9 C 89 % 1009,8 hPa 0,0 l/m N 0,00 h 52 W/m 0,0 km/h (0 Bft)
03.04.2013 10:00 1,2 C 87 % 1010,0 hPa 0,0 l/m N 0,00 h 67 W/m 0,0 km/h (0 Bft)
03.04.2013 11:00 1,7 C 85 % 1009,9 hPa 0,0 l/m N 0,00 h 125 W/m 0,0 km/h (0 Bft)
03.04.2013 12:00 2,5 C 79 % 1009,7 hPa 0,0 l/m N 0,00 h 134 W/m 0,0 km/h (0 Bft)
03.04.2013 13:00 3,0 C 76 % 1009,4 hPa 0,0 l/m N 0,00 h 145 W/m 0,0 km/h (0 Bft)
03.04.2013 14:00 3,5 C 74 % 1009,0 hPa 0,0 l/m N 0,00 h 152 W/m 0,0 km/h (0 Bft)
03.04.2013 15:00 4,0 C 72 % 1009,0 hPa 0,0 l/m N 0,00 h 156 W/m 0,0 km/h (0 Bft)
03.04.2013 16:00 4,1 C 72 % 1008,9 hPa 0,0 l/m N 0,00 h 112 W/m 0,0 km/h (0 Bft)
03.04.2013 17:00 3,7 C 74 % 1008,9 hPa 0,0 l/m N 0,00 h 80 W/m 0,0 km/h (0 Bft)
03.04.2013 18:00 3,2 C 75 % 1008,9 hPa 0,0 l/m N 0,00 h 38 W/m 0,0 km/h (0 Bft)
03.04.2013 19:00 2,8 C 75 % 1009,0 hPa 0,0 l/m N 0,00 h 10 W/m 0,0 km/h (0 Bft)
03.04.2013 20:00 2,4 C 76 % 1009,3 hPa 0,0 l/m N 0,00 h 0 W/m 0,0 km/h (0 Bft)
03.04.2013 21:00 2,2 C 77 % 1009,3 hPa 0,0 l/m O 0,00 h 0 W/m 0,0 km/h (0 Bft)
03.04.2013 22:00 2,0 C 77 % 1009,1 hPa 0,0 l/m O-NO 0,00 h 0 W/m 9,9 km/h (2 Bft)
03.04.2013 23:00 1,6 C 78 % 1008,7 hPa 0,0 l/m O-NO 0,00 h 0 W/m 13,6 km/h (3 Bft)
04.04.2013 00:00 1,1 C 78 % 1008,6 hPa 0,0 l/m O-NO 0,00 h 0 W/m 12,5 km/h (3 Bft)
04.04.2013 01:00 0,7 C 79 % 1008,7 hPa 0,0 l/m O-NO 0,00 h 0 W/m 10,6 km/h (2 Bft)
04.04.2013 02:00 0,3 C 81 % 1008,5 hPa 0,0 l/m O-NO 0,00 h 0 W/m 10,9 km/h (2 Bft)
04.04.2013 03:00 0,1 C 82 % 1008,3 hPa 0,0 l/m O-NO 0,00 h 0 W/m 10,1 km/h (2 Bft)
04.04.2013 04:00 -0,1 C 83 % 1008,0 hPa 0,0 l/m O-NO 0,00 h 0 W/m 11,7 km/h (2 Bft)
04.04.2013 05:00 -0,1 C 84 % 1007,7 hPa 0,0 l/m NO 0,00 h 0 W/m 12,5 km/h (3 Bft)
04.04.2013 06:00 -0,3 C 85 % 1007,4 hPa 0,0 l/m NO 0,00 h 0 W/m 13,7 km/h (3 Bft)
04.04.2013 07:00 -0,6 C 87 % 1007,6 hPa 0,0 l/m NO 0,00 h 15 W/m 11,9 km/h (2 Bft)
04.04.2013 08:00 -0,2 C 88 % 1007,6 hPa 0,0 l/m O-NO 0,00 h 52 W/m 13,6 km/h (3 Bft)
04.04.2013 09:00 0,4 C 87 % 1007,3 hPa 0,0 l/m O-NO 0,00 h 81 W/m 13,6 km/h (3 Bft)
04.04.2013 10:00 1,1 C 85 % 1007,3 hPa 0,0 l/m O 0,00 h 121 W/m 15,2 km/h (3 Bft)
04.04.2013 11:00 2,0 C 82 % 1007,3 hPa 0,0 l/m O-NO 0,00 h 197 W/m 15,3 km/h (3 Bft)
04.04.2013 12:00 3,1 C 79 % 1007,3 hPa 0,0 l/m O-NO 0,08 h 291 W/m 16,1 km/h (3 Bft)
04.04.2013 13:00 4,7 C 75 % 1006,5 hPa 0,0 l/m NO 0,83 h 552 W/m 19,8 km/h (4 Bft)
04.04.2013 14:00 6,4 C 69 % 1005,9 hPa 0,0 l/m O 1,00 h 690 W/m 23,2 km/h (4 Bft)
04.04.2013 15:00 7,5 C 66 % 1005,0 hPa 0,0 l/m O 1,00 h 539 W/m 21,7 km/h (4 Bft)
04.04.2013 16:00 7,8 C 65 % 1004,2 hPa 0,0 l/m O 0,83 h 337 W/m 21,7 km/h (4 Bft)
04.04.2013 17:00 7,8 C 65 % 1003,9 hPa 0,0 l/m O 0,17 h 178 W/m 18,6 km/h (3 Bft)
04.04.2013 18:00 7,0 C 67 % 1003,9 hPa 0,0 l/m O-SO 0,00 h 79 W/m 19,4 km/h (3 Bft)
04.04.2013 19:00 6,2 C 69 % 1003,9 hPa 0,0 l/m O-NO 0,00 h 21 W/m 16,8 km/h (3 Bft)
04.04.2013 20:00 5,2 C 74 % 1004,0 hPa 0,0 l/m NO 0,00 h 0 W/m 13,2 km/h (3 Bft)
04.04.2013 21:00 4,1 C 77 % 1004,2 hPa 0,0 l/m O-NO 0,00 h 0 W/m 13,6 km/h (3 Bft)
04.04.2013 22:00 3,2 C 80 % 1004,1 hPa 0,0 l/m NO 0,00 h 0 W/m 12,8 km/h (3 Bft)
04.04.2013 23:00 2,4 C 83 % 1003,9 hPa 0,0 l/m N-NO 0,00 h 0 W/m 12,1 km/h (2 Bft)
05.04.2013 00:00 1,6 C 85 % 1003,6 hPa 0,0 l/m NO 0,00 h 0 W/m 11,0 km/h (2 Bft)
05.04.2013 01:00 0,7 C 86 % 1003,2 hPa 0,0 l/m O-NO 0,00 h 0 W/m 14,4 km/h (3 Bft)
05.04.2013 02:00 0,1 C 87 % 1002,6 hPa 0,0 l/m NO 0,00 h 0 W/m 15,3 km/h (3 Bft)
05.04.2013 03:00 -0,3 C 88 % 1002,3 hPa 0,0 l/m O-NO 0,00 h 0 W/m 16,4 km/h (3 Bft)
05.04.2013 04:00 -0,6 C 89 % 1001,8 hPa 0,0 l/m NO 0,00 h 0 W/m 14,1 km/h (3 Bft)
05.04.2013 05:00 -0,6 C 89 % 1001,5 hPa 0,0 l/m NO 0,00 h 0 W/m 13,0 km/h (3 Bft)
05.04.2013 06:00 -0,6 C 91 % 1001,8 hPa 0,0 l/m O-NO 0,00 h 0 W/m 12,6 km/h (3 Bft)
05.04.2013 07:00 -0,6 C 91 % 1002,1 hPa 0,0 l/m O-NO 0,00 h 9 W/m 14,6 km/h (3 Bft)
05.04.2013 08:00 -0,4 C 92 % 1002,5 hPa 0,0 l/m O-NO 0,00 h 28 W/m 12,9 km/h (3 Bft)
05.04.2013 09:00 0,0 C 92 % 1002,8 hPa 0,0 l/m O-NO 0,00 h 44 W/m 12,5 km/h (3 Bft)
05.04.2013 10:00 0,4 C 91 % 1003,3 hPa 0,0 l/m O-NO 0,00 h 60 W/m 11,3 km/h (2 Bft)
05.04.2013 11:00 1,0 C 88 % 1003,8 hPa 0,0 l/m O-NO 0,00 h 96 W/m 12,9 km/h (3 Bft)
05.04.2013 12:00 1,4 C 85 % 1004,2 hPa 0,0 l/m O-NO 0,00 h 84 W/m 10,6 km/h (2 Bft)
05.04.2013 13:00 1,9 C 84 % 1004,4 hPa 0,0 l/m NO 0,00 h 120 W/m 10,5 km/h (2 Bft)
05.04.2013 14:00 2,4 C 82 % 1004,6 hPa 0,0 l/m O-NO 0,00 h 110 W/m 11,9 km/h (2 Bft)
05.04.2013 15:00 2,7 C 81 % 1004,8 hPa 0,0 l/m O-NO 0,00 h 78 W/m 8,6 km/h (2 Bft)
05.04.2013 16:00 2,9 C 80 % 1004,9 hPa 0,0 l/m O-NO 0,00 h 71 W/m 8,0 km/h (2 Bft)
05.04.2013 17:00 3,1 C 79 % 1005,4 hPa 0,0 l/m O-SO 0,00 h 52 W/m 6,3 km/h (2 Bft)
05.04.2013 18:00 3,1 C 78 % 1006,1 hPa 0,0 l/m O 0,00 h 19 W/m 7,2 km/h (2 Bft)
05.04.2013 19:00 2,8 C 79 % 1006,9 hPa 0,0 l/m O-NO 0,00 h 8 W/m 6,3 km/h (2 Bft)
05.04.2013 20:00 2,5 C 80 % 1007,8 hPa 0,0 l/m O 0,00 h 0 W/m 6,8 km/h (2 Bft)
05.04.2013 21:00 2,3 C 80 % 1008,9 hPa 0,0 l/m O 0,00 h 0 W/m 7,0 km/h (2 Bft)
05.04.2013 22:00 2,1 C 81 % 1009,6 hPa 0,0 l/m O-NO 0,00 h 0 W/m 7,5 km/h (2 Bft)
05.04.2013 23:00 1,8 C 82 % 1009,9 hPa 0,0 l/m O-NO 0,00 h 0 W/m 7,4 km/h (2 Bft)
06.04.2013 00:00 1,6 C 83 % 1010,2 hPa 0,0 l/m NO 0,00 h 0 W/m 4,0 km/h (1 Bft)
06.04.2013 01:00 1,3 C 84 % 1010,4 hPa 0,0 l/m NO 0,00 h 0 W/m 2,7 km/h (1 Bft)
06.04.2013 02:00 1,2 C 85 % 1010,5 hPa 0,0 l/m NO 0,00 h 0 W/m 4,0 km/h (1 Bft)
06.04.2013 03:00 1,2 C 85 % 1010,3 hPa 0,0 l/m NO 0,00 h 0 W/m 3,9 km/h (1 Bft)
06.04.2013 04:00 1,1 C 86 % 1010,5 hPa 0,0 l/m NO 0,00 h 0 W/m 2,4 km/h (1 Bft)
06.04.2013 05:00 1,0 C 87 % 1010,7 hPa 0,0 l/m N 0,00 h 0 W/m 2,5 km/h (1 Bft)
06.04.2013 06:00 0,8 C 88 % 1011,2 hPa 0,0 l/m N 0,00 h 0 W/m 1,3 km/h (1 Bft)
06.04.2013 07:00 0,8 C 89 % 1011,7 hPa 0,0 l/m NO 0,00 h 10 W/m 2,9 km/h (1 Bft)
06.04.2013 08:00 1,0 C 89 % 1012,3 hPa 0,0 l/m NO 0,00 h 28 W/m 4,5 km/h (1 Bft)
06.04.2013 09:00 1,4 C 86 % 1012,9 hPa 0,0 l/m NO 0,00 h 46 W/m 4,8 km/h (1 Bft)
06.04.2013 10:00 1,9 C 85 % 1013,5 hPa 0,0 l/m NO 0,00 h 70 W/m 5,3 km/h (1 Bft)
06.04.2013 11:00 2,5 C 83 % 1014,0 hPa 0,0 l/m NO 0,00 h 107 W/m 8,3 km/h (2 Bft)
06.04.2013 12:00 3,1 C 80 % 1014,4 hPa 0,0 l/m O-NO 0,00 h 147 W/m 8,2 km/h (2 Bft)
06.04.2013 13:00 3,8 C 79 % 1014,3 hPa 0,0 l/m N-NO 0,00 h 206 W/m 12,4 km/h (3 Bft)
06.04.2013 14:00 4,0 C 76 % 1014,4 hPa 0,0 l/m N-NO 0,00 h 148 W/m 11,3 km/h (2 Bft)
06.04.2013 15:00 3,9 C 76 % 1014,4 hPa 0,0 l/m NO 0,00 h 128 W/m 13,0 km/h (3 Bft)
06.04.2013 16:00 3,8 C 76 % 1014,5 hPa 0,0 l/m NO 0,00 h 91 W/m 11,2 km/h (2 Bft)
06.04.2013 17:00 3,5 C 76 % 1014,9 hPa 0,0 l/m N-NO 0,00 h 39 W/m 11,8 km/h (2 Bft)
06.04.2013 18:00 3,3 C 76 % 1015,5 hPa 0,0 l/m NO 0,00 h 19 W/m 9,7 km/h (2 Bft)
06.04.2013 19:00 3,0 C 78 % 1016,2 hPa 0,0 l/m NO 0,00 h 8 W/m 7,1 km/h (2 Bft)
06.04.2013 20:00 2,6 C 80 % 1017,0 hPa 0,0 l/m NO 0,00 h 0 W/m 10,5 km/h (2 Bft)
06.04.2013 21:00 2,3 C 81 % 1017,8 hPa 0,0 l/m NO 0,00 h 0 W/m 3,9 km/h (1 Bft)
06.04.2013 22:00 2,1 C 81 % 1018,4 hPa 0,0 l/m O-NO 0,00 h 0 W/m 10,2 km/h (2 Bft)
06.04.2013 23:00 1,7 C 81 % 1018,6 hPa 0,0 l/m NO 0,00 h 0 W/m 8,7 km/h (2 Bft)
07.04.2013 00:00 1,5 C 81 % 1018,5 hPa 0,0 l/m NO 0,00 h 0 W/m 5,9 km/h (2 Bft)
07.04.2013 01:00 1,3 C 82 % 1018,4 hPa 0,0 l/m N-NO 0,00 h 0 W/m 7,4 km/h (2 Bft)
07.04.2013 02:00 1,2 C 83 % 1018,2 hPa 0,0 l/m N-NO 0,00 h 0 W/m 6,8 km/h (2 Bft)
07.04.2013 03:00 1,1 C 83 % 1018,1 hPa 0,0 l/m N-NO 0,00 h 0 W/m 5,1 km/h (1 Bft)
07.04.2013 04:00 1,0 C 84 % 1018,1 hPa 0,0 l/m N-NO 0,00 h 0 W/m 6,4 km/h (2 Bft)
07.04.2013 05:00 0,9 C 84 % 1018,1 hPa 0,0 l/m N-NO 0,00 h 0 W/m 5,7 km/h (1 Bft)
07.04.2013 06:00 0,8 C 85 % 1018,5 hPa 0,0 l/m N-NO 0,00 h 0 W/m 5,7 km/h (1 Bft)
07.04.2013 07:00 0,8 C 86 % 1018,7 hPa 0,0 l/m N-NO 0,00 h 10 W/m 3,3 km/h (1 Bft)
07.04.2013 08:00 0,9 C 88 % 1018,9 hPa 0,0 l/m N-NO 0,00 h 24 W/m 3,3 km/h (1 Bft)
07.04.2013 09:00 1,3 C 88 % 1019,1 hPa 0,0 l/m N-NO 0,00 h 52 W/m 8,3 km/h (2 Bft)
07.04.2013 10:00 1,7 C 88 % 1019,0 hPa 0,0 l/m NO 0,00 h 93 W/m 9,4 km/h (2 Bft)
07.04.2013 11:00 2,7 C 83 % 1018,9 hPa 0,0 l/m O-NO 0,00 h 174 W/m 12,1 km/h (2 Bft)
07.04.2013 12:00 3,6 C 77 % 1018,4 hPa 0,0 l/m NO 0,00 h 230 W/m 14,1 km/h (3 Bft)
07.04.2013 13:00 4,4 C 72 % 1017,8 hPa 0,0 l/m O-NO 0,00 h 294 W/m 14,6 km/h (3 Bft)
07.04.2013 14:00 4,7 C 69 % 1017,4 hPa 0,0 l/m NO 0,00 h 137 W/m 12,9 km/h (3 Bft)
07.04.2013 15:00 4,6 C 68 % 1017,2 hPa 0,0 l/m O 0,00 h 100 W/m 9,5 km/h (2 Bft)
07.04.2013 16:00 4,7 C 65 % 1016,7 hPa 0,0 l/m NO 0,00 h 92 W/m 10,5 km/h (2 Bft)
07.04.2013 17:00 4,7 C 64 % 1016,1 hPa 0,0 l/m O-NO 0,00 h 79 W/m 12,6 km/h (3 Bft)
07.04.2013 18:00 4,6 C 64 % 1015,6 hPa 0,0 l/m O-SO 0,00 h 41 W/m 10,6 km/h (2 Bft)
07.04.2013 19:00 4,2 C 68 % 1015,0 hPa 0,0 l/m O 0,00 h 11 W/m 12,2 km/h (2 Bft)
07.04.2013 20:00 3,6 C 72 % 1014,6 hPa 0,0 l/m O-SO 0,00 h 0 W/m 8,6 km/h (2 Bft)
07.04.2013 21:00 2,9 C 75 % 1014,3 hPa 0,0 l/m O 0,00 h 0 W/m 4,9 km/h (1 Bft)
07.04.2013 22:00 1,7 C 79 % 1013,5 hPa 0,0 l/m O-NO 0,00 h 0 W/m 7,3 km/h (2 Bft)
07.04.2013 23:00 0,8 C 83 % 1012,9 hPa 0,0 l/m O-NO 0,00 h 0 W/m 5,3 km/h (1 Bft)
Min-Datum _ 01.04.13 01.04.13 05.04.13 - - - - 01.04.13
_ Min-Zeit 07:05 17:00 05:10 - - - - 00:20
Minimum _ -3,2 C 62 % 1001,4 hPa - - - - 0,0 km/h (0 Bft)
Max-Datum _ 04.04.13 01.04.13 07.04.13 01.04.13 - 01.04.13 01.04.13 01.04.13
_ Max-Zeit 17:05 07:50 08:40 00:00 - 07:10 13:30 13:10
Maximum _ 8,2 C 99 % 1019,1 hPa 0,0 l/m - 0,08 h 898 W/m 32,2 km/h
O-SO (5 Bft)
Durchschnitt _ 1,5 C 81 % 1008,9 hPa #0,0 l/m O-NO #10:15 h 133 W/m 9,0 km/h (2 Bft)